Terminal Aerodrome Forecast
Issued by NWS

Home | Current Version | Previous Version | Text Only | Print | Product List | Glossary On
Versions: 1 2 3 4 5 6 7 8 9 10 11 12 13 14 15 16 17
000
FTAK31 PAJN 221700
TAFAYA
TAF
PAYA 221731Z 2218/2318 25005KT P6SM FEW001 SCT010 OVC090
     FM230200 VRB03KT P6SM BKN010 OVC090
     FM230900 00000KT 2SM BCFG BKN008 BKN090
     FM231600 VRB03KT P6SM SCT008 SCT090
      AMD LTD TO CLD VIS AND WIND 2301/2310=

USA.gov is the U.S. government's official web portal to all federal, state and local government web resources and services.